Time;durP1;ratioP1;P1;durP2;ratioP2;P2;SDS_P1;SDS_P2;PMS_P1;PMS_P2;Temp;Humidity;BMP_temperature;BMP_pressure;BME280_temperature;BME280_humidity;BME280_pressure;Samples;Min_cycle;Max_cycle;Signal;HPM_P1;HPM_P2
2021/01/08 00:00:57;;;;;;;15.88;8.88;;;0.70;80.00;;;;;;4995670;28;20038;-77
2021/01/08 00:03:23;;;;;;;14.35;8.65;;;0.60;80.00;;;;;;4995539;28;20050;-77
2021/01/08 00:05:49;;;;;;;17.10;9.23;;;0.60;80.20;;;;;;4995432;28;20027;-77
2021/01/08 00:08:15;;;;;;;17.05;9.00;;;0.60;80.20;;;;;;4995516;28;20030;-77
2021/01/08 00:10:40;;;;;;;18.30;9.85;;;0.50;80.30;;;;;;4995462;28;20035;-77
2021/01/08 00:13:06;;;;;;;15.65;8.88;;;0.50;80.40;;;;;;4995472;28;20420;-77
2021/01/08 00:15:31;;;;;;;16.27;9.25;;;0.50;80.60;;;;;;4995295;28;20471;-76
2021/01/08 00:17:57;;;;;;;18.80;9.65;;;0.50;80.70;;;;;;4995237;28;20018;-78
2021/01/08 00:20:23;;;;;;;12.75;8.10;;;0.40;80.60;;;;;;4994050;28;20480;-77
2021/01/08 00:22:49;;;;;;;15.88;9.02;;;0.40;80.70;;;;;;4994948;28;20042;-77
2021/01/08 00:25:15;;;;;;;14.27;7.88;;;0.50;80.80;;;;;;4995252;28;20130;-77
2021/01/08 00:27:40;;;;;;;13.95;8.05;;;0.50;80.80;;;;;;4995031;28;20061;-77
2021/01/08 00:30:07;;;;;;;13.57;7.45;;;0.50;80.70;;;;;;4994965;28;20049;-77
2021/01/08 00:32:33;;;;;;;13.70;7.85;;;0.50;80.50;;;;;;4994970;28;20030;-77
2021/01/08 00:34:58;;;;;;;13.98;8.55;;;0.50;80.20;;;;;;4995026;28;20042;-77
2021/01/08 00:37:24;;;;;;;16.20;8.30;;;0.50;80.00;;;;;;4994942;28;20026;-80
2021/01/08 00:39:50;;;;;;;16.30;8.20;;;0.50;80.00;;;;;;4994914;28;20027;-77
2021/01/08 00:42:17;;;;;;;15.73;8.57;;;0.50;80.00;;;;;;4994881;28;20031;-76
2021/01/08 00:44:43;;;;;;;14.68;8.80;;;0.60;79.90;;;;;;4994661;28;20391;-77
2021/01/08 00:47:09;;;;;;;15.95;8.55;;;0.60;79.90;;;;;;4994675;28;20105;-78
2021/01/08 00:49:35;;;;;;;15.77;9.27;;;0.60;79.70;;;;;;4994709;28;20038;-77
2021/01/08 00:52:01;;;;;;;16.33;10.07;;;0.60;80.40;;;;;;4977170;28;20022;-77
2021/01/08 00:54:27;;;;;;;21.80;10.20;;;0.70;79.60;;;;;;4994662;28;20042;-79
2021/01/08 00:56:52;;;;;;;18.88;10.43;;;0.60;79.30;;;;;;4994594;28;20027;-77
2021/01/08 00:59:18;;;;;;;20.63;11.48;;;0.60;79.50;;;;;;4994517;28;20034;-77
2021/01/08 01:01:44;;;;;;;22.02;10.70;;;0.50;79.90;;;;;;4994273;28;20434;-77
2021/01/08 01:04:09;;;;;;;17.23;9.73;;;0.50;80.20;;;;;;4994416;28;20034;-77
2021/01/08 01:06:35;;;;;;;18.52;9.85;;;0.50;80.40;;;;;;4994402;28;20094;-77
2021/01/08 01:09:02;;;;;;;16.73;9.10;;;0.50;80.30;;;;;;4976566;28;20065;-77
2021/01/08 01:11:29;;;;;;;16.45;9.85;;;0.50;80.30;;;;;;4994427;28;20018;-77
2021/01/08 01:13:56;;;;;;;17.48;9.70;;;0.50;80.30;;;;;;4993975;28;20076;-77
2021/01/08 01:16:24;;;;;;;16.05;8.82;;;0.60;80.30;;;;;;4994116;28;20379;-78
2021/01/08 01:18:51;;;;;;;18.67;10.52;;;0.60;80.40;;;;;;4994160;28;20053;-77
2021/01/08 01:21:17;;;;;;;17.13;8.85;;;0.60;80.20;;;;;;4994155;28;20045;-78
2021/01/08 01:23:43;;;;;;;17.60;9.90;;;0.60;80.10;;;;;;4976402;28;20046;-78
2021/01/08 01:26:08;;;;;;;18.00;10.10;;;0.70;80.10;;;;;;4994007;28;20178;-77
2021/01/08 01:28:35;;;;;;;17.83;9.75;;;0.60;79.90;;;;;;4994061;28;20022;-77
2021/01/08 01:31:02;;;;;;;17.23;9.82;;;0.50;80.10;;;;;;4994061;28;20034;-77
2021/01/08 01:33:27;;;;;;;17.98;9.68;;;0.50;80.20;;;;;;4994153;28;20023;-77
2021/01/08 01:35:54;;;;;;;15.77;9.35;;;0.50;80.40;;;;;;4993928;28;20033;-77
2021/01/08 01:38:20;;;;;;;16.95;9.18;;;0.50;80.40;;;;;;4993896;28;20101;-77
2021/01/08 01:40:46;;;;;;;17.00;8.95;;;0.50;80.40;;;;;;4993905;28;20033;-76
2021/01/08 01:43:12;;;;;;;15.00;8.27;;;0.50;80.20;;;;;;4993754;28;20034;-76
2021/01/08 01:45:37;;;;;;;17.98;8.88;;;0.50;79.90;;;;;;4993843;28;20026;-77
2021/01/08 01:48:03;;;;;;;14.00;7.60;;;0.50;79.90;;;;;;4993896;28;20018;-77
2021/01/08 01:50:29;;;;;;;14.85;8.40;;;0.50;79.40;;;;;;4976319;28;20117;-79
2021/01/08 01:52:55;;;;;;;14.13;8.23;;;0.50;79.40;;;;;;4993728;28;20018;-77
2021/01/08 01:55:22;;;;;;;14.15;7.57;;;0.50;79.00;;;;;;4993646;28;20023;-76
2021/01/08 01:57:52;;;;;;;14.38;8.18;;;0.40;78.80;;;;;;4993613;28;20022;-77
2021/01/08 02:00:18;;;;;;;16.63;7.65;;;0.30;79.10;;;;;;4993734;28;20022;-76
2021/01/08 02:02:48;;;;;;;14.40;7.70;;;0.30;79.40;;;;;;4993604;28;20076;-76
2021/01/08 02:05:16;;;;;;;14.23;7.65;;;0.40;80.00;;;;;;4993485;28;20030;-77
2021/01/08 02:07:56;;;;;;;12.20;6.80;;;0.50;78.90;;;;;;4975976;28;20029;-76
2021/01/08 02:10:24;;;;;;;15.00;7.40;;;0.50;78.90;;;;;;4993612;28;20026;-77
2021/01/08 02:12:52;;;;;;;15.20;7.82;;;0.50;78.70;;;;;;4993505;28;20030;-77
2021/01/08 02:15:18;;;;;;;13.27;7.40;;;0.70;78.70;;;;;;4993535;28;20030;-76
2021/01/08 02:17:47;;;;;;;15.63;7.78;;;0.70;78.10;;;;;;4993047;28;20030;-76
2021/01/08 02:20:13;;;;;;;15.98;7.13;;;0.70;77.50;;;;;;4993536;28;20506;-77
2021/01/08 02:23:11;;;;;;;16.33;7.55;;;0.70;77.10;;;;;;4995927;28;20457;-76
2021/01/08 02:25:38;;;;;;;14.75;7.15;;;0.70;76.90;;;;;;4997384;28;20126;-76
2021/01/08 02:28:03;;;;;;;14.23;7.50;;;0.70;76.60;;;;;;4997404;28;20058;-76
2021/01/08 02:30:30;;;;;;;12.27;7.22;;;0.70;76.70;;;;;;4979867;28;20081;-77
2021/01/08 02:32:57;;;;;;;13.40;6.82;;;0.70;76.90;;;;;;4997265;28;20513;-76
2021/01/08 02:35:23;;;;;;;13.65;6.57;;;0.70;76.80;;;;;;4997307;28;20030;-77
2021/01/08 02:37:49;;;;;;;10.02;6.00;;;0.70;76.50;;;;;;4997142;28;20497;-77
2021/01/08 02:40:16;;;;;;;11.70;6.80;;;0.70;77.50;;;;;;4997238;28;20379;-76
2021/01/08 02:42:44;;;;;;;11.77;7.03;;;0.60;76.70;;;;;;4996996;28;20026;-76
2021/01/08 02:45:11;;;;;;;11.63;6.80;;;0.70;76.90;;;;;;4997100;28;20039;-77
2021/01/08 02:47:36;;;;;;;12.10;6.70;;;0.70;76.80;;;;;;4996978;28;20034;-77
2021/01/08 02:50:04;;;;;;;13.13;7.65;;;0.70;76.80;;;;;;4997060;28;20028;-77
2021/01/08 02:52:33;;;;;;;12.50;7.40;;;0.70;76.90;;;;;;4996990;28;20022;-77
2021/01/08 02:55:02;;;;;;;15.02;8.05;;;0.70;77.10;;;;;;4996909;28;20026;-77
2021/01/08 02:57:28;;;;;;;12.90;7.07;;;0.70;77.20;;;;;;4996906;28;20037;-77
2021/01/08 02:59:56;;;;;;;11.07;6.90;;;0.70;77.00;;;;;;4979155;28;20105;-77
2021/01/08 03:02:23;;;;;;;12.65;7.10;;;0.70;76.70;;;;;;4996739;28;20493;-77
2021/01/08 03:04:49;;;;;;;11.95;6.75;;;0.60;76.70;;;;;;4996653;28;20038;-77
2021/01/08 03:07:21;;;;;;;15.05;7.93;;;0.70;77.10;;;;;;4996870;28;20041;-77
2021/01/08 03:09:47;;;;;;;16.27;8.45;;;0.60;77.00;;;;;;4996560;28;20487;-77
2021/01/08 03:12:15;;;;;;;13.95;7.82;;;0.50;77.20;;;;;;4996719;28;20027;-77
2021/01/08 03:14:44;;;;;;;12.00;7.43;;;0.40;77.50;;;;;;4996495;28;20467;-77
2021/01/08 03:17:10;;;;;;;15.02;8.50;;;0.40;77.90;;;;;;4996562;28;20023;-78
2021/01/08 03:19:36;;;;;;;13.43;8.43;;;0.40;78.10;;;;;;4996413;28;20061;-77
2021/01/08 03:22:02;;;;;;;15.27;8.25;;;0.30;78.20;;;;;;4996214;28;20070;-77
2021/01/08 03:24:27;;;;;;;13.60;7.88;;;0.30;78.20;;;;;;4996318;28;20038;-77
2021/01/08 03:26:53;;;;;;;16.27;7.63;;;0.30;78.20;;;;;;4996415;28;20084;-77
2021/01/08 03:29:18;;;;;;;16.90;8.23;;;0.20;78.40;;;;;;4996451;28;20105;-77
2021/01/08 03:31:44;;;;;;;13.95;7.78;;;0.30;78.70;;;;;;4996316;28;20037;-77
2021/01/08 03:34:09;;;;;;;16.52;8.23;;;0.30;78.70;;;;;;4995873;28;20033;-77
2021/01/08 03:36:35;;;;;;;16.25;8.23;;;0.20;78.70;;;;;;4996326;28;20030;-77
2021/01/08 03:39:00;;;;;;;18.20;8.77;;;0.30;79.00;;;;;;4996433;28;20024;-78
2021/01/08 03:41:26;;;;;;;17.85;8.88;;;0.40;78.90;;;;;;4999896;28;20117;-77
2021/01/08 03:43:51;;;;;;;15.55;7.97;;;0.40;78.80;;;;;;5004471;28;20069;-78
2021/01/08 03:46:18;;;;;;;16.63;8.85;;;0.40;78.60;;;;;;5001972;28;20027;-78
2021/01/08 03:48:44;;;;;;;17.13;8.48;;;0.40;78.40;;;;;;4996206;28;20050;-78
2021/01/08 03:51:09;;;;;;;14.40;7.88;;;0.50;78.40;;;;;;4995984;28;20019;-77
2021/01/08 03:53:35;;;;;;;14.88;7.88;;;0.50;78.00;;;;;;4995998;28;20030;-77
2021/01/08 03:56:01;;;;;;;17.30;7.30;;;0.50;77.80;;;;;;4995822;28;20470;-77
2021/01/08 03:58:26;;;;;;;12.23;7.07;;;0.60;77.80;;;;;;4994516;28;20034;-78
2021/01/08 04:00:52;;;;;;;12.88;7.18;;;0.60;77.70;;;;;;4995811;28;20581;-78
2021/01/08 04:03:18;;;;;;;12.20;7.18;;;0.50;77.50;;;;;;4995633;28;20034;-78
2021/01/08 04:05:43;;;;;;;10.50;6.32;;;0.50;78.20;;;;;;4995641;28;20379;-78
2021/01/08 04:08:09;;;;;;;12.02;6.75;;;0.50;77.30;;;;;;4995684;28;20026;-77
2021/01/08 04:10:34;;;;;;;12.10;7.07;;;0.60;77.50;;;;;;4995453;28;20375;-77
2021/01/08 04:13:00;;;;;;;13.48;8.18;;;0.60;77.60;;;;;;4995814;28;20031;-77
2021/01/08 04:15:25;;;;;;;13.00;7.20;;;0.70;77.10;;;;;;4995577;28;20034;-76
2021/01/08 04:17:51;;;;;;;13.05;6.68;;;0.60;76.50;;;;;;4996374;28;20022;-77
2021/01/08 04:20:16;;;;;;;11.05;6.53;;;0.60;76.40;;;;;;4998782;28;20085;-77
2021/01/08 04:22:42;;;;;;;11.25;6.28;;;0.50;76.50;;;;;;4998622;28;20108;-77
2021/01/08 04:25:08;;;;;;;11.65;7.10;;;0.60;76.50;;;;;;4998414;28;20089;-76
2021/01/08 04:27:33;;;;;;;12.48;6.45;;;0.60;76.90;;;;;;4996896;28;20057;-77
2021/01/08 04:29:59;;;;;;;12.05;7.38;;;0.60;77.10;;;;;;4996549;28;20150;-76
2021/01/08 04:32:24;;;;;;;13.98;7.85;;;0.60;77.10;;;;;;4996609;28;20025;-77
2021/01/08 04:34:50;;;;;;;14.65;7.95;;;0.60;77.10;;;;;;4995175;28;20022;-77
2021/01/08 04:37:15;;;;;;;13.27;7.60;;;0.60;77.40;;;;;;4995097;28;20463;-77
2021/01/08 04:39:41;;;;;;;13.23;7.50;;;0.70;77.80;;;;;;4995014;28;20382;-77
2021/01/08 04:42:07;;;;;;;12.63;7.07;;;0.50;78.50;;;;;;4994994;28;20027;-77
2021/01/08 04:44:33;;;;;;;17.77;8.13;;;0.50;78.60;;;;;;4994036;28;20359;-77
2021/01/08 04:46:58;;;;;;;13.50;7.25;;;0.50;78.70;;;;;;4994890;28;20101;-77
2021/01/08 04:49:24;;;;;;;15.52;7.15;;;0.60;78.80;;;;;;4994713;28;20034;-77
2021/01/08 04:51:51;;;;;;;20.95;8.48;;;0.50;78.70;;;;;;4994817;28;20446;-77
2021/01/08 04:54:17;;;;;;;12.65;8.05;;;0.60;78.70;;;;;;4994758;28;20080;-77
2021/01/08 04:56:53;;;;;;;15.38;9.18;;;0.60;78.80;;;;;;4994539;28;20018;-77
2021/01/08 04:59:19;;;;;;;19.15;10.25;;;0.60;78.90;;;;;;4994779;28;20482;-77
2021/01/08 05:01:45;;;;;;;21.05;10.52;;;0.60;79.10;;;;;;4977066;28;20030;-77
2021/01/08 05:04:10;;;;;;;17.80;9.55;;;0.60;79.30;;;;;;4994428;28;20129;-78
2021/01/08 05:06:36;;;;;;;16.23;9.30;;;0.60;79.40;;;;;;4994469;28;20109;-79
2021/01/08 05:09:02;;;;;;;14.55;8.75;;;0.60;79.50;;;;;;4994539;28;20097;-78
2021/01/08 05:11:31;;;;;;;14.95;8.52;;;0.60;79.50;;;;;;4994519;28;20022;-78
2021/01/08 05:13:59;;;;;;;14.35;7.72;;;0.70;79.50;;;;;;4976792;28;20048;-77
2021/01/08 05:16:27;;;;;;;14.77;7.63;;;0.70;79.40;;;;;;4994263;28;20034;-77
2021/01/08 05:18:55;;;;;;;14.82;8.38;;;0.70;79.60;;;;;;4994249;28;20025;-78
2021/01/08 05:21:24;;;;;;;15.20;7.85;;;0.70;79.60;;;;;;4994312;28;20026;-79
2021/01/08 05:23:51;;;;;;;17.70;8.35;;;0.60;79.50;;;;;;4976593;28;20466;-78
2021/01/08 05:26:16;;;;;;;12.68;7.50;;;0.60;79.50;;;;;;4976762;28;20026;-78
2021/01/08 05:28:56;;;;;;;13.18;7.15;;;0.60;79.50;;;;;;4994123;28;20093;-77
2021/01/08 05:31:25;;;;;;;14.10;7.57;;;0.60;79.50;;;;;;4994217;28;20037;-78
2021/01/08 05:33:52;;;;;;;31.02;10.32;;;0.60;80.40;;;;;;4994209;28;20022;-86
2021/01/08 05:36:19;;;;;;;24.70;9.35;;;0.80;82.50;;;;;;4994091;28;20111;-82
2021/01/08 05:38:47;;;;;;;22.10;9.35;;;1.90;95.80;;;;;;4993984;28;20033;-79
2021/01/08 05:41:12;;;;;;;16.92;9.48;;;2.00;96.20;;;;;;4993949;28;20030;-82
2021/01/08 05:43:40;;;;;;;19.38;10.75;;;1.80;94.30;;;;;;4993858;28;20042;-80
2021/01/08 05:46:34;;;;;;;16.17;9.30;;;2.00;93.20;;;;;;4993921;28;20105;-80
2021/01/08 05:49:07;;;;;;;15.07;8.32;;;2.50;89.70;;;;;;4993924;28;20026;-82
2021/01/08 05:51:37;;;;;;;13.55;7.68;;;3.10;82.60;;;;;;4976732;28;20451;-83
2021/01/08 05:54:04;;;;;;;11.48;6.93;;;3.30;78.70;;;;;;4994239;28;20022;-83
2021/01/08 05:56:37;;;;;;;8.30;5.10;;;3.40;75.70;;;;;;4993825;28;20077;-83
2021/01/08 05:59:06;;;;;;;9.10;5.55;;;3.40;73.40;;;;;;4993723;28;20383;-75
2021/01/08 06:01:33;;;;;;;10.38;6.35;;;3.20;70.90;;;;;;4993609;28;20041;-75
2021/01/08 06:03:59;;;;;;;10.63;6.80;;;2.80;69.20;;;;;;4993506;28;20034;-75
2021/01/08 06:06:25;;;;;;;10.73;6.53;;;2.50;69.40;;;;;;4993523;28;20101;-78
2021/01/08 06:08:54;;;;;;;10.27;6.20;;;2.20;70.10;;;;;;4992369;28;20113;-75
2021/01/08 06:11:25;;;;;;;11.45;6.72;;;2.00;71.10;;;;;;4993651;28;20379;-79
2021/01/08 06:13:52;;;;;;;12.10;6.70;;;1.80;71.80;;;;;;4993546;28;20026;-80
2021/01/08 06:16:20;;;;;;;13.40;6.70;;;1.40;72.30;;;;;;4993516;28;20022;-75
2021/01/08 06:18:50;;;;;;;11.48;6.07;;;1.20;73.20;;;;;;4993334;28;20018;-77
2021/01/08 06:21:16;;;;;;;11.82;6.43;;;1.10;74.00;;;;;;4993631;28;20031;-77
2021/01/08 06:23:43;;;;;;;10.50;6.45;;;1.00;74.40;;;;;;4993258;28;20049;-78
2021/01/08 06:26:13;;;;;;;10.43;6.18;;;1.00;75.00;;;;;;4993581;28;20073;-78
2021/01/08 06:28:44;;;;;;;9.15;5.70;;;0.90;75.50;;;;;;4993303;28;20111;-77
2021/01/08 06:31:22;;;;;;;10.32;5.90;;;0.90;75.70;;;;;;4993256;28;20037;-77
2021/01/08 06:33:56;;;;;;;12.52;7.68;;;0.90;75.90;;;;;;4993321;28;20034;-77
2021/01/08 06:36:24;;;;;;;12.77;7.50;;;0.80;76.00;;;;;;4993467;28;20540;-76
2021/01/08 06:38:55;;;;;;;16.17;9.60;;;0.80;76.10;;;;;;4993366;28;20387;-76
2021/01/08 06:41:21;;;;;;;17.45;10.95;;;0.80;76.10;;;;;;4993422;28;20129;-78
2021/01/08 06:43:58;;;;;;;14.43;9.13;;;0.80;76.20;;;;;;4993078;28;20041;-83
2021/01/08 06:46:39;;;;;;;13.27;8.10;;;0.80;76.40;;;;;;4993468;28;20026;-76
2021/01/08 06:49:11;;;;;;;13.32;7.50;;;0.80;76.50;;;;;;4993320;28;20120;-76
2021/01/08 06:51:40;;;;;;;8.15;4.90;;;0.70;76.20;;;;;;4993162;28;20042;-78
2021/01/08 06:54:08;;;;;;;8.30;4.72;;;0.70;73.50;;;;;;4993041;28;20412;-77
2021/01/08 06:56:35;;;;;;;9.80;5.22;;;0.70;72.80;;;;;;4975308;28;20390;-76
2021/01/08 06:59:01;;;;;;;11.70;6.00;;;0.70;73.30;;;;;;4992969;28;20030;-76
2021/01/08 07:01:45;;;;;;;9.25;5.70;;;0.80;73.80;;;;;;4993123;28;20029;-76
2021/01/08 07:04:11;;;;;;;8.95;4.78;;;0.80;74.30;;;;;;4992951;28;20478;-77
2021/01/08 07:06:37;;;;;;;7.97;5.07;;;0.80;74.70;;;;;;4992918;28;20030;-78
2021/01/08 07:09:05;;;;;;;10.80;5.68;;;0.90;74.90;;;;;;4995953;28;20380;-76
2021/01/08 07:11:32;;;;;;;9.02;5.10;;;0.90;75.30;;;;;;4996608;28;20029;-76
2021/01/08 07:14:14;;;;;;;13.75;5.97;;;0.90;75.30;;;;;;4996552;28;20023;-81
2021/01/08 07:16:47;;;;;;;11.52;5.85;;;0.90;75.10;;;;;;4996302;28;20015;-77
2021/01/08 07:19:15;;;;;;;9.48;5.30;;;0.90;74.60;;;;;;4996461;28;20029;-79
2021/01/08 07:21:49;;;;;;;9.18;4.93;;;0.90;73.20;;;;;;4996445;28;20026;-84
2021/01/08 07:24:22;;;;;;;8.18;4.72;;;0.80;72.10;;;;;;4996369;28;20037;-78
2021/01/08 07:26:48;;;;;;;6.72;4.35;;;0.70;72.50;;;;;;4996229;28;20479;-78
2021/01/08 07:29:15;;;;;;;10.93;6.50;;;0.80;72.20;;;;;;4978815;28;20042;-80
2021/01/08 07:31:41;;;;;;;10.63;6.25;;;0.90;72.80;;;;;;4996604;28;20107;-80
2021/01/08 07:34:09;;;;;;;8.88;5.57;;;0.90;73.20;;;;;;4996558;28;20052;-80
2021/01/08 07:36:36;;;;;;;8.32;5.25;;;0.90;73.80;;;;;;4996401;28;20537;-80
2021/01/08 07:39:05;;;;;;;8.25;4.85;;;0.90;74.00;;;;;;4978446;28;20026;-83
2021/01/08 07:41:36;;;;;;;8.68;4.25;;;0.80;73.00;;;;;;4996949;28;20477;-79
2021/01/08 07:44:03;;;;;;;9.23;5.32;;;0.80;72.40;;;;;;4996126;28;20109;-80
2021/01/08 07:46:32;;;;;;;9.48;5.38;;;0.90;72.90;;;;;;4997133;28;20084;-80
2021/01/08 07:49:00;;;;;;;7.97;4.03;;;0.90;73.30;;;;;;4997745;28;20527;-80
2021/01/08 07:51:48;;;;;;;5.95;4.20;;;0.90;72.00;;;;;;5001923;28;20029;-83
2021/01/08 07:54:14;;;;;;;8.23;4.35;;;1.00;70.90;;;;;;4998120;28;20486;-82
2021/01/08 07:57:03;;;;;;;8.05;4.82;;;0.90;71.70;;;;;;5004655;28;20109;-83
2021/01/08 07:59:29;;;;;;;6.50;3.55;;;0.90;70.50;;;;;;4997229;28;20418;-83
2021/01/08 08:01:55;;;;;;;8.18;3.67;;;0.90;70.40;;;;;;4999851;28;20064;-81
2021/01/08 08:04:25;;;;;;;8.52;4.25;;;0.80;70.20;;;;;;4997091;28;20042;-81
2021/01/08 08:06:51;;;;;;;7.20;3.75;;;0.80;70.40;;;;;;4996896;28;20101;-79
2021/01/08 08:09:17;;;;;;;6.32;3.30;;;0.70;70.80;;;;;;4995475;28;20462;-79
2021/01/08 08:11:43;;;;;;;5.28;3.13;;;0.70;70.90;;;;;;4995521;28;20033;-79
2021/01/08 08:14:14;;;;;;;8.07;3.92;;;0.70;70.90;;;;;;4995302;28;20038;-81
2021/01/08 08:16:40;;;;;;;7.00;3.92;;;0.80;70.70;;;;;;4995412;28;20125;-80
2021/01/08 08:19:11;;;;;;;5.68;3.95;;;0.70;70.90;;;;;;4994093;28;20023;-79
2021/01/08 08:21:37;;;;;;;6.63;3.75;;;0.80;70.60;;;;;;4994996;28;20026;-78
2021/01/08 08:24:04;;;;;;;7.35;3.92;;;0.70;71.00;;;;;;4994951;28;20050;-80
2021/01/08 08:26:32;;;;;;;5.75;3.83;;;0.70;71.40;;;;;;4995301;28;20313;-80
2021/01/08 08:29:05;;;;;;;7.53;4.28;;;0.80;71.20;;;;;;4995478;28;20042;-84
2021/01/08 08:31:32;;;;;;;6.07;3.75;;;0.90;70.80;;;;;;4995199;28;20026;-80
2021/01/08 08:33:59;;;;;;;7.65;4.13;;;0.80;70.80;;;;;;4995026;28;20537;-80
2021/01/08 08:36:26;;;;;;;7.38;4.35;;;0.80;71.00;;;;;;4994979;28;20359;-79
2021/01/08 08:39:05;;;;;;;8.93;4.38;;;0.70;71.50;;;;;;4994955;28;20450;-79
2021/01/08 08:41:32;;;;;;;6.57;4.10;;;0.70;71.90;;;;;;4994962;28;20038;-79
2021/01/08 08:44:18;;;;;;;7.85;4.55;;;0.80;71.80;;;;;;4994487;28;20034;-79
2021/01/08 08:46:55;;;;;;;8.30;4.88;;;0.80;71.90;;;;;;4996210;28;20500;-78
2021/01/08 08:49:20;;;;;;;6.28;3.88;;;0.90;71.50;;;;;;4998162;28;20075;-80
2021/01/08 08:51:50;;;;;;;8.32;4.93;;;0.90;71.40;;;;;;4999626;28;20104;-80
2021/01/08 08:54:16;;;;;;;8.07;4.72;;;1.10;71.40;;;;;;4999740;28;20479;-81
2021/01/08 08:56:49;;;;;;;8.30;4.10;;;1.20;71.10;;;;;;4996501;28;20556;-80
2021/01/08 08:59:16;;;;;;;5.93;4.05;;;1.20;70.80;;;;;;4995759;28;20033;-80
2021/01/08 09:01:43;;;;;;;6.60;3.92;;;1.20;70.50;;;;;;4995378;28;20114;-80
2021/01/08 09:04:09;;;;;;;7.15;4.18;;;1.20;70.90;;;;;;4993259;28;20101;-80
2021/01/08 09:06:43;;;;;;;7.43;4.53;;;1.20;70.90;;;;;;4993084;28;20023;-80
2021/01/08 09:09:23;;;;;;;9.57;4.70;;;1.20;71.10;;;;;;4994458;28;20038;-81
2021/01/08 09:12:16;;;;;;;6.90;3.90;;;1.10;71.60;;;;;;4994165;28;20050;-80
2021/01/08 09:14:45;;;;;;;7.82;4.28;;;1.00;71.70;;;;;;4984220;28;20030;-81
2021/01/08 09:17:17;;;;;;;7.70;4.68;;;1.00;71.80;;;;;;4992887;28;20030;-80
2021/01/08 09:19:58;;;;;;;5.47;3.47;;;0.80;72.60;;;;;;4994024;28;20436;-80
2021/01/08 09:22:28;;;;;;;7.63;4.75;;;0.80;72.90;;;;;;4994087;28;20092;-80
2021/01/08 09:24:58;;;;;;;8.07;4.32;;;0.70;73.10;;;;;;4994122;28;20027;-83
2021/01/08 09:27:24;;;;;;;6.25;4.18;;;0.70;73.20;;;;;;4992912;28;20037;-80
2021/01/08 09:29:50;;;;;;;7.88;4.07;;;0.70;73.70;;;;;;4993927;28;20026;-82
2021/01/08 09:32:30;;;;;;;6.43;4.13;;;0.90;73.70;;;;;;4993911;28;20471;-82
2021/01/08 09:35:00;;;;;;;10.35;4.47;;;1.10;72.80;;;;;;4976559;28;20034;-82
2021/01/08 09:37:29;;;;;;;6.80;4.32;;;1.20;72.00;;;;;;4993815;28;20071;-81
2021/01/08 09:39:57;;;;;;;9.35;5.05;;;1.30;71.40;;;;;;4993728;28;20033;-81
2021/01/08 09:42:23;;;;;;;6.43;3.88;;;1.30;71.10;;;;;;4994069;28;20029;-81
2021/01/08 09:44:48;;;;;;;9.55;4.85;;;1.30;70.40;;;;;;4993626;28;20038;-80
2021/01/08 09:47:14;;;;;;;8.70;5.30;;;1.30;70.40;;;;;;4993653;28;20494;-82
2021/01/08 09:49:43;;;;;;;9.07;4.75;;;1.40;70.70;;;;;;4976216;28;20034;-79
2021/01/08 09:52:11;;;;;;;10.20;5.82;;;1.50;70.40;;;;;;4993928;28;20073;-78
2021/01/08 09:54:45;;;;;;;9.63;5.80;;;1.60;70.30;;;;;;4993722;28;20493;-79
2021/01/08 09:57:26;;;;;;;9.95;5.65;;;1.90;70.00;;;;;;4993365;28;20378;-77
2021/01/08 09:59:59;;;;;;;8.05;5.30;;;2.20;69.00;;;;;;4993740;28;20026;-79
2021/01/08 10:02:36;;;;;;;8.73;4.93;;;2.40;68.30;;;;;;4993585;28;20014;-79
2021/01/08 10:05:24;;;;;;;6.75;4.57;;;2.60;66.40;;;;;;4993363;28;20034;-81
2021/01/08 10:07:50;;;;;;;6.88;4.35;;;2.50;65.80;;;;;;4993387;28;20033;-80
2021/01/08 10:10:37;;;;;;;6.88;4.15;;;2.30;65.80;;;;;;4993636;28;20502;-80
2021/01/08 10:13:07;;;;;;;9.32;4.60;;;2.20;66.10;;;;;;4975979;28;20035;-80
2021/01/08 10:15:46;;;;;;;7.13;4.05;;;2.10;66.70;;;;;;4976044;28;20112;-81
2021/01/08 10:18:34;;;;;;;6.70;4.68;;;2.10;66.80;;;;;;4993921;28;20038;-80
2021/01/08 10:21:07;;;;;;;8.48;4.72;;;2.20;67.00;;;;;;4993750;28;20471;-80
2021/01/08 10:23:39;;;;;;;8.82;5.40;;;2.80;65.90;;;;;;4993393;28;20109;-82
2021/01/08 10:26:14;;;;;;;7.65;3.95;;;3.00;65.10;;;;;;4976500;28;20031;-80
2021/01/08 10:28:55;;;;;;;6.30;4.15;;;3.40;63.60;;;;;;4993372;28;20026;-81
2021/01/08 10:31:22;;;;;;;8.20;4.57;;;3.60;62.80;;;;;;4993501;28;20026;-84
2021/01/08 10:33:48;;;;;;;6.88;4.53;;;3.70;61.90;;;;;;4993362;28;20034;-81
2021/01/08 10:36:14;;;;;;;7.53;4.32;;;4.00;60.90;;;;;;4993477;28;20475;-78
2021/01/08 10:38:40;;;;;;;8.82;5.32;;;4.00;59.90;;;;;;4993492;28;20045;-80
2021/01/08 10:41:06;;;;;;;8.30;5.18;;;3.90;60.00;;;;;;4976220;28;20027;-82
2021/01/08 10:43:34;;;;;;;9.23;5.60;;;3.60;60.90;;;;;;4995942;28;20117;-81
2021/01/08 10:46:00;;;;;;;9.95;5.25;;;3.10;62.10;;;;;;4997915;28;20060;-82
2021/01/08 10:48:26;;;;;;;10.90;5.38;;;2.80;63.20;;;;;;4997862;28;20014;-80
2021/01/08 10:50:52;;;;;;;10.82;5.70;;;2.70;63.80;;;;;;4997441;28;20104;-81
2021/01/08 10:53:17;;;;;;;10.32;5.68;;;2.80;64.30;;;;;;4997409;28;20501;-80
2021/01/08 10:55:47;;;;;;;6.85;4.00;;;2.70;65.10;;;;;;4997442;28;20037;-79
2021/01/08 10:58:16;;;;;;;7.80;4.30;;;2.50;65.70;;;;;;4997059;28;20034;-79
2021/01/08 11:00:46;;;;;;;6.88;4.45;;;2.30;65.60;;;;;;4996934;28;20022;-81
2021/01/08 11:03:11;;;;;;;8.48;4.93;;;2.20;66.50;;;;;;4996839;28;20383;-79
2021/01/08 11:05:38;;;;;;;6.60;3.90;;;2.20;67.50;;;;;;4996609;28;20038;-79
2021/01/08 11:08:05;;;;;;;6.43;3.83;;;2.30;67.00;;;;;;4996982;28;20486;-80
2021/01/08 11:10:31;;;;;;;6.60;3.63;;;2.40;65.70;;;;;;4996942;28;20023;-82
2021/01/08 11:12:56;;;;;;;6.47;3.80;;;2.40;64.80;;;;;;4995955;28;20100;-80
2021/01/08 11:15:22;;;;;;;5.97;3.50;;;2.40;65.30;;;;;;4996755;28;20479;-79
2021/01/08 11:17:48;;;;;;;7.10;3.78;;;2.20;66.00;;;;;;4996390;28;20034;-81
2021/01/08 11:20:14;;;;;;;8.75;4.82;;;2.50;66.10;;;;;;4996317;28;20028;-81
2021/01/08 11:22:40;;;;;;;8.05;4.40;;;2.40;66.20;;;;;;4996226;28;20054;-80
2021/01/08 11:25:06;;;;;;;5.22;3.33;;;3.40;65.00;;;;;;4996198;28;20102;-79
2021/01/08 11:27:32;;;;;;;7.53;3.72;;;4.00;62.00;;;;;;4996172;28;20026;-78
2021/01/08 11:29:57;;;;;;;5.13;3.15;;;4.50;58.50;;;;;;4978551;28;20490;-78
2021/01/08 11:32:23;;;;;;;5.13;3.42;;;4.20;57.40;;;;;;4996251;28;20027;-80
2021/01/08 11:34:49;;;;;;;5.47;3.17;;;4.70;56.00;;;;;;4995785;28;20034;-79
2021/01/08 11:37:14;;;;;;;7.30;4.03;;;4.40;55.60;;;;;;4996044;28;20061;-78
2021/01/08 11:39:40;;;;;;;5.85;3.40;;;4.90;54.80;;;;;;4995743;28;20105;-78
2021/01/08 11:42:05;;;;;;;4.60;3.25;;;5.20;53.90;;;;;;4996539;28;20101;-78
2021/01/08 11:44:31;;;;;;;4.15;3.00;;;6.30;52.70;;;;;;4997928;28;20060;-83
2021/01/08 11:46:57;;;;;;;5.72;3.85;;;7.60;49.70;;;;;;4999251;28;20033;-88
2021/01/08 11:49:22;;;;;;;5.45;3.15;;;8.40;46.80;;;;;;4999987;28;20041;-87
2021/01/08 11:51:48;;;;;;;5.90;3.72;;;8.80;44.70;;;;;;4980871;28;20025;-86
2021/01/08 11:54:14;;;;;;;5.45;3.45;;;9.00;43.60;;;;;;4999005;28;20058;-84
2021/01/08 11:56:39;;;;;;;4.53;2.83;;;8.50;42.90;;;;;;4999818;28;20018;-85
2021/01/08 11:59:05;;;;;;;5.15;3.03;;;8.80;42.10;;;;;;4996669;28;20026;-84
2021/01/08 12:01:31;;;;;;;6.82;2.80;;;9.70;40.70;;;;;;5004574;28;20078;-83
2021/01/08 12:03:58;;;;;;;3.63;2.72;;;10.30;40.00;;;;;;4997804;28;20502;-85
2021/01/08 12:06:32;;;;;;;5.10;3.10;;;11.50;38.10;;;;;;4996422;28;20035;-85
2021/01/08 12:08:59;;;;;;;3.97;3.00;;;11.30;36.40;;;;;;4998339;28;20026;-83
2021/01/08 12:11:25;;;;;;;9.07;3.30;;;11.40;36.00;;;;;;4997118;28;20414;-85
2021/01/08 12:13:51;;;;;;;5.18;2.83;;;12.90;35.20;;;;;;4995985;28;20034;-84
2021/01/08 12:16:27;;;;;;;4.25;3.38;;;13.70;33.60;;;;;;4995994;28;20023;-85
2021/01/08 12:18:53;;;;;;;4.32;2.47;;;15.10;32.00;;;;;;4995956;28;20027;-79
2021/01/08 12:21:20;;;;;;;4.30;3.33;;;16.30;30.10;;;;;;4995683;28;20029;-77
2021/01/08 12:23:45;;;;;;;4.75;3.45;;;15.90;28.00;;;;;;4995657;28;20169;-77
2021/01/08 12:26:15;;;;;;;3.83;2.75;;;16.00;27.10;;;;;;4995458;28;20443;-78
2021/01/08 12:28:41;;;;;;;6.00;2.95;;;15.70;27.00;;;;;;4995394;28;20014;-79
2021/01/08 12:31:07;;;;;;;3.25;2.67;;;15.80;26.90;;;;;;4995389;28;20030;-77
2021/01/08 12:33:33;;;;;;;5.75;3.92;;;16.30;26.20;;;;;;4995295;28;20371;-79
2021/01/08 12:35:58;;;;;;;3.92;3.08;;;17.70;24.80;;;;;;4995199;28;20034;-79
2021/01/08 12:38:24;;;;;;;4.68;3.00;;;17.20;23.10;;;;;;4994701;28;20026;-80
2021/01/08 12:40:49;;;;;;;4.82;3.40;;;15.10;24.00;;;;;;4994824;28;20064;-77
2021/01/08 12:43:15;;;;;;;4.18;3.20;;;16.20;25.00;;;;;;4994820;28;20368;-77
2021/01/08 12:45:40;;;;;;;3.25;2.70;;;16.40;24.20;;;;;;4994689;28;20022;-78
2021/01/08 12:48:07;;;;;;;3.70;2.63;;;17.10;23.60;;;;;;4994790;28;20035;-77
2021/01/08 12:50:37;;;;;;;5.75;3.40;;;17.70;22.60;;;;;;4977145;28;20100;-76
2021/01/08 12:53:02;;;;;;;3.47;2.92;;;16.60;21.90;;;;;;4994690;28;20050;-76
2021/01/08 12:55:28;;;;;;;4.45;3.15;;;15.10;22.80;;;;;;4994544;28;20479;-77